sensor_id;sensor_type;location;lat;lon;timestamp;P1;durP1;ratioP1;P2;durP2;ratioP2
43519;SDS011;46848;51.980;5.918;2023-04-15T00:00:42;7.57;;;3.67;;
43519;SDS011;46848;51.980;5.918;2023-04-15T00:03:07;8.25;;;3.45;;
43519;SDS011;46848;51.980;5.918;2023-04-15T00:05:36;7.38;;;2.88;;
43519;SDS011;46848;51.980;5.918;2023-04-15T00:08:03;4.93;;;2.80;;
43519;SDS011;46848;51.980;5.918;2023-04-15T00:10:29;7.85;;;3.88;;
43519;SDS011;46848;51.980;5.918;2023-04-15T00:12:54;8.77;;;3.30;;
43519;SDS011;46848;51.980;5.918;2023-04-15T00:15:20;9.18;;;3.38;;
43519;SDS011;46848;51.980;5.918;2023-04-15T00:17:48;5.47;;;2.90;;
43519;SDS011;46848;51.980;5.918;2023-04-15T00:20:15;6.00;;;2.90;;
43519;SDS011;46848;51.980;5.918;2023-04-15T00:22:41;7.03;;;3.55;;
43519;SDS011;46848;51.980;5.918;2023-04-15T00:25:07;7.00;;;2.75;;
43519;SDS011;46848;51.980;5.918;2023-04-15T00:27:33;6.10;;;2.97;;
43519;SDS011;46848;51.980;5.918;2023-04-15T00:29:59;6.25;;;3.33;;
43519;SDS011;46848;51.980;5.918;2023-04-15T00:32:24;7.60;;;3.27;;
43519;SDS011;46848;51.980;5.918;2023-04-15T00:34:50;6.43;;;3.30;;
43519;SDS011;46848;51.980;5.918;2023-04-15T00:37:16;6.53;;;3.07;;
43519;SDS011;46848;51.980;5.918;2023-04-15T00:39:42;8.75;;;3.78;;
43519;SDS011;46848;51.980;5.918;2023-04-15T00:42:08;7.63;;;3.50;;
43519;SDS011;46848;51.980;5.918;2023-04-15T00:44:34;7.20;;;3.03;;
43519;SDS011;46848;51.980;5.918;2023-04-15T00:47:00;7.13;;;3.53;;
43519;SDS011;46848;51.980;5.918;2023-04-15T00:49:27;6.90;;;2.92;;
43519;SDS011;46848;51.980;5.918;2023-04-15T00:51:53;6.50;;;3.17;;
43519;SDS011;46848;51.980;5.918;2023-04-15T00:54:19;7.15;;;3.67;;
43519;SDS011;46848;51.980;5.918;2023-04-15T00:56:46;5.87;;;3.00;;
43519;SDS011;46848;51.980;5.918;2023-04-15T00:59:12;6.10;;;2.60;;
43519;SDS011;46848;51.980;5.918;2023-04-15T01:01:39;6.57;;;3.40;;
43519;SDS011;46848;51.980;5.918;2023-04-15T01:04:05;8.43;;;3.53;;
43519;SDS011;46848;51.980;5.918;2023-04-15T01:06:32;8.37;;;3.40;;
43519;SDS011;46848;51.980;5.918;2023-04-15T01:08:58;6.43;;;3.00;;
43519;SDS011;46848;51.980;5.918;2023-04-15T01:11:24;7.87;;;3.57;;
43519;SDS011;46848;51.980;5.918;2023-04-15T01:13:51;6.17;;;3.03;;
43519;SDS011;46848;51.980;5.918;2023-04-15T01:16:17;9.60;;;4.10;;
43519;SDS011;46848;51.980;5.918;2023-04-15T01:18:43;7.90;;;3.17;;
43519;SDS011;46848;51.980;5.918;2023-04-15T01:21:09;6.38;;;3.40;;
43519;SDS011;46848;51.980;5.918;2023-04-15T01:23:35;5.93;;;3.13;;
43519;SDS011;46848;51.980;5.918;2023-04-15T01:26:03;5.40;;;3.40;;
43519;SDS011;46848;51.980;5.918;2023-04-15T01:28:29;6.13;;;3.40;;
43519;SDS011;46848;51.980;5.918;2023-04-15T01:31:28;7.03;;;4.17;;
43519;SDS011;46848;51.980;5.918;2023-04-15T01:33:47;7.55;;;3.72;;
43519;SDS011;46848;51.980;5.918;2023-04-15T01:36:12;6.60;;;3.60;;
43519;SDS011;46848;51.980;5.918;2023-04-15T01:38:38;8.10;;;4.13;;
43519;SDS011;46848;51.980;5.918;2023-04-15T01:41:05;5.97;;;3.53;;
43519;SDS011;46848;51.980;5.918;2023-04-15T01:43:34;6.70;;;3.70;;
43519;SDS011;46848;51.980;5.918;2023-04-15T01:46:01;6.60;;;4.20;;
43519;SDS011;46848;51.980;5.918;2023-04-15T01:48:27;5.73;;;3.47;;
43519;SDS011;46848;51.980;5.918;2023-04-15T01:50:53;6.97;;;4.17;;
43519;SDS011;46848;51.980;5.918;2023-04-15T01:53:19;6.43;;;3.63;;
43519;SDS011;46848;51.980;5.918;2023-04-15T01:55:45;8.37;;;4.10;;
43519;SDS011;46848;51.980;5.918;2023-04-15T01:58:10;7.63;;;4.10;;
43519;SDS011;46848;51.980;5.918;2023-04-15T02:00:36;8.67;;;4.63;;
43519;SDS011;46848;51.980;5.918;2023-04-15T02:03:02;10.70;;;4.37;;
43519;SDS011;46848;51.980;5.918;2023-04-15T02:05:28;8.40;;;4.30;;
43519;SDS011;46848;51.980;5.918;2023-04-15T02:07:53;7.30;;;3.47;;
43519;SDS011;46848;51.980;5.918;2023-04-15T02:10:19;7.67;;;4.23;;
43519;SDS011;46848;51.980;5.918;2023-04-15T02:12:45;8.53;;;4.30;;
43519;SDS011;46848;51.980;5.918;2023-04-15T02:15:10;7.28;;;3.80;;
43519;SDS011;46848;51.980;5.918;2023-04-15T02:17:36;9.07;;;4.00;;
43519;SDS011;46848;51.980;5.918;2023-04-15T02:20:03;6.07;;;3.40;;
43519;SDS011;46848;51.980;5.918;2023-04-15T02:22:32;8.63;;;4.30;;
43519;SDS011;46848;51.980;5.918;2023-04-15T02:24:58;7.67;;;4.20;;
43519;SDS011;46848;51.980;5.918;2023-04-15T02:27:24;6.33;;;3.73;;
43519;SDS011;46848;51.980;5.918;2023-04-15T02:29:50;6.43;;;4.10;;
43519;SDS011;46848;51.980;5.918;2023-04-15T02:32:16;6.23;;;4.20;;
43519;SDS011;46848;51.980;5.918;2023-04-15T02:34:42;8.17;;;4.83;;
43519;SDS011;46848;51.980;5.918;2023-04-15T02:37:08;5.13;;;3.70;;
43519;SDS011;46848;51.980;5.918;2023-04-15T02:39:35;7.90;;;3.90;;
43519;SDS011;46848;51.980;5.918;2023-04-15T02:42:01;9.77;;;4.63;;
43519;SDS011;46848;51.980;5.918;2023-04-15T02:44:27;7.37;;;3.87;;
43519;SDS011;46848;51.980;5.918;2023-04-15T02:46:53;6.60;;;4.03;;
43519;SDS011;46848;51.980;5.918;2023-04-15T02:49:22;8.00;;;4.57;;
43519;SDS011;46848;51.980;5.918;2023-04-15T02:51:48;8.23;;;4.33;;
43519;SDS011;46848;51.980;5.918;2023-04-15T02:54:20;8.90;;;4.60;;
43519;SDS011;46848;51.980;5.918;2023-04-15T02:56:50;8.30;;;4.53;;
43519;SDS011;46848;51.980;5.918;2023-04-15T02:59:19;7.93;;;4.27;;
43519;SDS011;46848;51.980;5.918;2023-04-15T03:01:45;9.57;;;4.83;;
43519;SDS011;46848;51.980;5.918;2023-04-15T03:04:10;7.53;;;4.10;;
43519;SDS011;46848;51.980;5.918;2023-04-15T03:06:37;10.20;;;4.40;;
43519;SDS011;46848;51.980;5.918;2023-04-15T03:09:02;10.07;;;4.30;;
43519;SDS011;46848;51.980;5.918;2023-04-15T03:11:28;7.57;;;4.90;;
43519;SDS011;46848;51.980;5.918;2023-04-15T03:13:54;8.13;;;4.47;;
43519;SDS011;46848;51.980;5.918;2023-04-15T03:16:20;7.03;;;4.47;;
43519;SDS011;46848;51.980;5.918;2023-04-15T03:18:45;8.70;;;4.70;;
43519;SDS011;46848;51.980;5.918;2023-04-15T03:21:11;7.00;;;4.20;;
43519;SDS011;46848;51.980;5.918;2023-04-15T03:23:36;7.47;;;4.97;;
43519;SDS011;46848;51.980;5.918;2023-04-15T03:26:03;11.13;;;4.63;;
43519;SDS011;46848;51.980;5.918;2023-04-15T03:28:29;9.77;;;5.17;;
43519;SDS011;46848;51.980;5.918;2023-04-15T03:30:55;7.97;;;5.03;;
43519;SDS011;46848;51.980;5.918;2023-04-15T03:33:20;10.33;;;5.30;;
43519;SDS011;46848;51.980;5.918;2023-04-15T03:35:46;8.63;;;5.07;;
43519;SDS011;46848;51.980;5.918;2023-04-15T03:38:12;7.10;;;5.17;;
43519;SDS011;46848;51.980;5.918;2023-04-15T03:40:39;9.43;;;5.63;;
43519;SDS011;46848;51.980;5.918;2023-04-15T03:43:05;7.57;;;5.43;;
43519;SDS011;46848;51.980;5.918;2023-04-15T03:45:32;7.87;;;5.27;;
43519;SDS011;46848;51.980;5.918;2023-04-15T03:47:58;9.70;;;5.77;;
43519;SDS011;46848;51.980;5.918;2023-04-15T03:50:24;9.60;;;5.20;;
43519;SDS011;46848;51.980;5.918;2023-04-15T03:52:50;8.37;;;5.60;;
43519;SDS011;46848;51.980;5.918;2023-04-15T03:55:15;9.30;;;4.83;;
43519;SDS011;46848;51.980;5.918;2023-04-15T03:57:41;7.20;;;5.50;;
43519;SDS011;46848;51.980;5.918;2023-04-15T04:00:07;7.27;;;5.20;;
43519;SDS011;46848;51.980;5.918;2023-04-15T04:02:34;7.63;;;4.97;;
43519;SDS011;46848;51.980;5.918;2023-04-15T04:04:59;10.17;;;6.73;;
43519;SDS011;46848;51.980;5.918;2023-04-15T04:07:25;10.63;;;6.00;;
43519;SDS011;46848;51.980;5.918;2023-04-15T04:09:51;6.90;;;4.90;;
43519;SDS011;46848;51.980;5.918;2023-04-15T04:12:16;10.07;;;5.10;;
43519;SDS011;46848;51.980;5.918;2023-04-15T04:14:42;9.50;;;5.77;;
43519;SDS011;46848;51.980;5.918;2023-04-15T04:17:10;6.63;;;4.73;;
43519;SDS011;46848;51.980;5.918;2023-04-15T04:19:36;12.33;;;5.30;;
43519;SDS011;46848;51.980;5.918;2023-04-15T04:22:02;8.23;;;5.40;;
43519;SDS011;46848;51.980;5.918;2023-04-15T04:24:27;8.43;;;4.37;;
43519;SDS011;46848;51.980;5.918;2023-04-15T04:26:53;10.33;;;5.23;;
43519;SDS011;46848;51.980;5.918;2023-04-15T04:29:18;8.20;;;5.10;;
43519;SDS011;46848;51.980;5.918;2023-04-15T04:31:44;8.23;;;5.23;;
43519;SDS011;46848;51.980;5.918;2023-04-15T04:34:10;9.17;;;5.50;;
43519;SDS011;46848;51.980;5.918;2023-04-15T04:36:37;8.83;;;4.97;;
43519;SDS011;46848;51.980;5.918;2023-04-15T04:39:03;9.03;;;5.23;;
43519;SDS011;46848;51.980;5.918;2023-04-15T04:41:28;9.17;;;5.20;;
43519;SDS011;46848;51.980;5.918;2023-04-15T04:43:56;10.13;;;6.07;;
43519;SDS011;46848;51.980;5.918;2023-04-15T04:46:21;9.03;;;5.90;;
43519;SDS011;46848;51.980;5.918;2023-04-15T04:48:47;10.17;;;5.80;;
43519;SDS011;46848;51.980;5.918;2023-04-15T04:51:13;8.07;;;5.70;;
43519;SDS011;46848;51.980;5.918;2023-04-15T04:53:39;11.77;;;6.30;;
43519;SDS011;46848;51.980;5.918;2023-04-15T04:56:06;9.53;;;5.57;;
43519;SDS011;46848;51.980;5.918;2023-04-15T04:58:32;9.27;;;6.23;;
43519;SDS011;46848;51.980;5.918;2023-04-15T05:00:58;9.37;;;6.37;;
43519;SDS011;46848;51.980;5.918;2023-04-15T05:03:25;6.97;;;5.60;;
43519;SDS011;46848;51.980;5.918;2023-04-15T05:05:51;9.03;;;5.67;;
43519;SDS011;46848;51.980;5.918;2023-04-15T05:08:17;10.87;;;6.63;;
43519;SDS011;46848;51.980;5.918;2023-04-15T05:10:42;9.07;;;6.70;;
43519;SDS011;46848;51.980;5.918;2023-04-15T05:13:08;9.23;;;5.80;;
43519;SDS011;46848;51.980;5.918;2023-04-15T05:15:33;9.90;;;6.27;;
43519;SDS011;46848;51.980;5.918;2023-04-15T05:18:01;8.83;;;5.63;;
43519;SDS011;46848;51.980;5.918;2023-04-15T05:20:26;11.63;;;7.10;;
43519;SDS011;46848;51.980;5.918;2023-04-15T05:22:52;9.03;;;5.87;;
43519;SDS011;46848;51.980;5.918;2023-04-15T05:25:18;7.90;;;5.93;;
43519;SDS011;46848;51.980;5.918;2023-04-15T05:27:43;7.93;;;5.83;;
43519;SDS011;46848;51.980;5.918;2023-04-15T05:30:09;9.33;;;6.20;;
43519;SDS011;46848;51.980;5.918;2023-04-15T05:32:37;9.10;;;6.40;;
43519;SDS011;46848;51.980;5.918;2023-04-15T05:35:02;9.33;;;6.20;;
43519;SDS011;46848;51.980;5.918;2023-04-15T05:37:28;11.17;;;6.70;;
43519;SDS011;46848;51.980;5.918;2023-04-15T05:39:55;11.70;;;6.67;;
43519;SDS011;46848;51.980;5.918;2023-04-15T05:42:20;10.13;;;6.60;;
43519;SDS011;46848;51.980;5.918;2023-04-15T05:44:46;10.37;;;6.93;;
43519;SDS011;46848;51.980;5.918;2023-04-15T05:47:12;8.37;;;5.93;;
43519;SDS011;46848;51.980;5.918;2023-04-15T05:49:37;8.87;;;5.77;;
43519;SDS011;46848;51.980;5.918;2023-04-15T05:52:03;7.70;;;5.47;;
43519;SDS011;46848;51.980;5.918;2023-04-15T05:54:29;9.43;;;6.13;;
43519;SDS011;46848;51.980;5.918;2023-04-15T05:56:55;7.77;;;5.50;;
43519;SDS011;46848;51.980;5.918;2023-04-15T05:59:22;7.23;;;4.43;;
43519;SDS011;46848;51.980;5.918;2023-04-15T06:01:49;8.50;;;5.77;;
43519;SDS011;46848;51.980;5.918;2023-04-15T06:04:16;9.27;;;6.43;;
43519;SDS011;46848;51.980;5.918;2023-04-15T06:06:41;11.67;;;6.80;;
43519;SDS011;46848;51.980;5.918;2023-04-15T06:09:07;9.00;;;5.70;;
43519;SDS011;46848;51.980;5.918;2023-04-15T06:11:33;8.17;;;5.03;;
43519;SDS011;46848;51.980;5.918;2023-04-15T06:14:00;8.30;;;4.33;;
43519;SDS011;46848;51.980;5.918;2023-04-15T06:16:26;7.97;;;6.10;;
43519;SDS011;46848;51.980;5.918;2023-04-15T06:18:51;9.10;;;6.30;;
43519;SDS011;46848;51.980;5.918;2023-04-15T06:21:17;8.30;;;5.97;;
43519;SDS011;46848;51.980;5.918;2023-04-15T06:23:43;9.87;;;6.70;;
43519;SDS011;46848;51.980;5.918;2023-04-15T06:26:09;8.60;;;6.20;;
43519;SDS011;46848;51.980;5.918;2023-04-15T06:28:35;9.80;;;7.18;;
43519;SDS011;46848;51.980;5.918;2023-04-15T06:31:01;9.70;;;7.37;;
43519;SDS011;46848;51.980;5.918;2023-04-15T06:33:27;9.57;;;6.37;;
43519;SDS011;46848;51.980;5.918;2023-04-15T06:35:53;9.75;;;5.85;;
43519;SDS011;46848;51.980;5.918;2023-04-15T06:38:19;10.60;;;6.03;;
43519;SDS011;46848;51.980;5.918;2023-04-15T06:40:45;10.57;;;6.32;;
43519;SDS011;46848;51.980;5.918;2023-04-15T06:43:10;8.55;;;5.80;;
43519;SDS011;46848;51.980;5.918;2023-04-15T06:45:36;9.23;;;6.28;;
43519;SDS011;46848;51.980;5.918;2023-04-15T06:48:02;9.73;;;6.53;;
43519;SDS011;46848;51.980;5.918;2023-04-15T06:50:29;7.53;;;5.68;;
43519;SDS011;46848;51.980;5.918;2023-04-15T06:52:55;7.93;;;5.50;;
43519;SDS011;46848;51.980;5.918;2023-04-15T06:55:21;7.72;;;6.00;;
43519;SDS011;46848;51.980;5.918;2023-04-15T06:57:47;9.18;;;6.38;;
43519;SDS011;46848;51.980;5.918;2023-04-15T07:00:12;8.68;;;5.20;;
43519;SDS011;46848;51.980;5.918;2023-04-15T07:02:41;9.73;;;7.20;;
43519;SDS011;46848;51.980;5.918;2023-04-15T07:05:07;9.45;;;6.25;;
43519;SDS011;46848;51.980;5.918;2023-04-15T07:07:32;8.23;;;6.33;;
43519;SDS011;46848;51.980;5.918;2023-04-15T07:09:59;8.93;;;5.85;;
43519;SDS011;46848;51.980;5.918;2023-04-15T07:12:26;10.60;;;6.25;;
43519;SDS011;46848;51.980;5.918;2023-04-15T07:14:51;9.73;;;5.57;;
43519;SDS011;46848;51.980;5.918;2023-04-15T07:17:17;7.60;;;5.30;;
43519;SDS011;46848;51.980;5.918;2023-04-15T07:19:43;10.25;;;6.97;;
43519;SDS011;46848;51.980;5.918;2023-04-15T07:22:08;9.27;;;5.90;;
43519;SDS011;46848;51.980;5.918;2023-04-15T07:24:34;8.13;;;5.82;;
43519;SDS011;46848;51.980;5.918;2023-04-15T07:26:59;8.65;;;5.93;;
43519;SDS011;46848;51.980;5.918;2023-04-15T07:29:25;8.02;;;5.57;;
43519;SDS011;46848;51.980;5.918;2023-04-15T07:31:51;9.45;;;6.35;;
43519;SDS011;46848;51.980;5.918;2023-04-15T07:34:17;8.87;;;6.00;;
43519;SDS011;46848;51.980;5.918;2023-04-15T07:36:43;9.05;;;6.78;;
43519;SDS011;46848;51.980;5.918;2023-04-15T07:39:10;8.17;;;6.47;;
43519;SDS011;46848;51.980;5.918;2023-04-15T07:41:35;7.68;;;6.03;;
43519;SDS011;46848;51.980;5.918;2023-04-15T07:44:02;9.35;;;6.32;;
43519;SDS011;46848;51.980;5.918;2023-04-15T07:46:28;9.60;;;6.40;;
43519;SDS011;46848;51.980;5.918;2023-04-15T07:48:53;8.63;;;6.63;;
43519;SDS011;46848;51.980;5.918;2023-04-15T07:51:20;11.50;;;6.25;;
43519;SDS011;46848;51.980;5.918;2023-04-15T07:53:46;9.57;;;6.20;;
43519;SDS011;46848;51.980;5.918;2023-04-15T07:56:13;7.93;;;5.50;;
43519;SDS011;46848;51.980;5.918;2023-04-15T07:58:42;7.50;;;5.45;;
43519;SDS011;46848;51.980;5.918;2023-04-15T08:01:07;8.80;;;6.07;;
43519;SDS011;46848;51.980;5.918;2023-04-15T08:03:33;8.25;;;6.00;;
43519;SDS011;46848;51.980;5.918;2023-04-15T08:05:59;10.40;;;6.18;;
43519;SDS011;46848;51.980;5.918;2023-04-15T08:08:24;9.90;;;6.38;;
43519;SDS011;46848;51.980;5.918;2023-04-15T08:10:50;10.05;;;6.18;;
43519;SDS011;46848;51.980;5.918;2023-04-15T08:13:16;7.60;;;5.10;;
43519;SDS011;46848;51.980;5.918;2023-04-15T08:15:42;6.90;;;4.60;;
43519;SDS011;46848;51.980;5.918;2023-04-15T08:18:08;6.43;;;4.70;;
43519;SDS011;46848;51.980;5.918;2023-04-15T08:20:33;7.97;;;4.82;;
43519;SDS011;46848;51.980;5.918;2023-04-15T08:22:59;8.48;;;5.00;;
43519;SDS011;46848;51.980;5.918;2023-04-15T08:25:25;7.05;;;4.82;;
43519;SDS011;46848;51.980;5.918;2023-04-15T08:27:53;4.65;;;3.75;;
43519;SDS011;46848;51.980;5.918;2023-04-15T08:30:21;5.25;;;3.58;;
43519;SDS011;46848;51.980;5.918;2023-04-15T08:32:48;5.97;;;3.88;;
43519;SDS011;46848;51.980;5.918;2023-04-15T08:35:15;5.20;;;3.20;;
43519;SDS011;46848;51.980;5.918;2023-04-15T08:37:40;4.45;;;2.97;;
43519;SDS011;46848;51.980;5.918;2023-04-15T08:40:06;6.25;;;2.67;;
43519;SDS011;46848;51.980;5.918;2023-04-15T08:42:36;5.38;;;3.20;;
43519;SDS011;46848;51.980;5.918;2023-04-15T08:45:08;4.57;;;3.33;;
43519;SDS011;46848;51.980;5.918;2023-04-15T08:47:35;5.82;;;2.85;;
43519;SDS011;46848;51.980;5.918;2023-04-15T08:50:07;4.93;;;2.80;;
43519;SDS011;46848;51.980;5.918;2023-04-15T08:52:35;4.38;;;2.65;;
43519;SDS011;46848;51.980;5.918;2023-04-15T08:55:01;4.80;;;2.75;;
43519;SDS011;46848;51.980;5.918;2023-04-15T08:57:27;4.50;;;3.10;;
43519;SDS011;46848;51.980;5.918;2023-04-15T08:59:56;4.82;;;2.95;;
43519;SDS011;46848;51.980;5.918;2023-04-15T09:04:51;5.50;;;2.90;;
43519;SDS011;46848;51.980;5.918;2023-04-15T09:07:17;4.25;;;2.70;;
43519;SDS011;46848;51.980;5.918;2023-04-15T09:09:43;4.15;;;2.95;;
43519;SDS011;46848;51.980;5.918;2023-04-15T09:12:09;5.15;;;3.22;;
43519;SDS011;46848;51.980;5.918;2023-04-15T09:14:36;5.93;;;2.88;;
43519;SDS011;46848;51.980;5.918;2023-04-15T09:17:04;5.63;;;2.80;;
43519;SDS011;46848;51.980;5.918;2023-04-15T09:19:29;4.88;;;3.28;;
43519;SDS011;46848;51.980;5.918;2023-04-15T09:21:57;4.43;;;3.20;;
43519;SDS011;46848;51.980;5.918;2023-04-15T09:24:24;5.95;;;2.90;;
43519;SDS011;46848;51.980;5.918;2023-04-15T09:26:57;4.88;;;3.45;;
43519;SDS011;46848;51.980;5.918;2023-04-15T09:29:23;4.70;;;2.88;;
43519;SDS011;46848;51.980;5.918;2023-04-15T09:31:50;4.97;;;3.42;;
43519;SDS011;46848;51.980;5.918;2023-04-15T09:34:16;6.05;;;3.60;;
43519;SDS011;46848;51.980;5.918;2023-04-15T09:39:11;5.45;;;3.28;;
43519;SDS011;46848;51.980;5.918;2023-04-15T09:41:37;5.90;;;3.28;;
43519;SDS011;46848;51.980;5.918;2023-04-15T09:44:03;5.95;;;3.15;;
43519;SDS011;46848;51.980;5.918;2023-04-15T09:46:42;6.53;;;2.72;;
43519;SDS011;46848;51.980;5.918;2023-04-15T09:49:09;5.40;;;3.22;;
43519;SDS011;46848;51.980;5.918;2023-04-15T09:51:36;6.38;;;3.25;;
43519;SDS011;46848;51.980;5.918;2023-04-15T09:54:03;4.95;;;2.90;;
43519;SDS011;46848;51.980;5.918;2023-04-15T09:56:36;4.93;;;3.08;;
43519;SDS011;46848;51.980;5.918;2023-04-15T09:59:05;4.00;;;2.63;;
43519;SDS011;46848;51.980;5.918;2023-04-15T10:01:36;5.25;;;2.70;;
43519;SDS011;46848;51.980;5.918;2023-04-15T10:04:05;4.28;;;2.60;;
43519;SDS011;46848;51.980;5.918;2023-04-15T10:06:31;6.50;;;3.30;;
43519;SDS011;46848;51.980;5.918;2023-04-15T10:08:59;4.90;;;3.15;;
43519;SDS011;46848;51.980;5.918;2023-04-15T10:11:28;5.45;;;3.13;;
43519;SDS011;46848;51.980;5.918;2023-04-15T10:13:55;5.38;;;3.38;;
43519;SDS011;46848;51.980;5.918;2023-04-15T10:16:22;4.68;;;2.70;;
43519;SDS011;46848;51.980;5.918;2023-04-15T10:18:55;6.05;;;3.47;;
43519;SDS011;46848;51.980;5.918;2023-04-15T10:21:25;5.25;;;3.03;;
43519;SDS011;46848;51.980;5.918;2023-04-15T10:23:52;3.05;;;2.22;;
43519;SDS011;46848;51.980;5.918;2023-04-15T10:26:18;3.75;;;2.22;;
43519;SDS011;46848;51.980;5.918;2023-04-15T10:28:45;7.43;;;2.50;;
43519;SDS011;46848;51.980;5.918;2023-04-15T10:31:12;5.43;;;2.80;;
43519;SDS011;46848;51.980;5.918;2023-04-15T10:33:42;3.47;;;2.25;;
43519;SDS011;46848;51.980;5.918;2023-04-15T10:36:09;4.28;;;2.40;;
43519;SDS011;46848;51.980;5.918;2023-04-15T10:38:40;2.95;;;2.15;;
43519;SDS011;46848;51.980;5.918;2023-04-15T10:41:22;4.15;;;2.50;;
43519;SDS011;46848;51.980;5.918;2023-04-15T10:43:54;4.75;;;2.22;;
43519;SDS011;46848;51.980;5.918;2023-04-15T10:46:21;4.18;;;2.40;;
43519;SDS011;46848;51.980;5.918;2023-04-15T10:48:49;3.97;;;2.25;;
43519;SDS011;46848;51.980;5.918;2023-04-15T10:51:15;3.97;;;2.35;;
43519;SDS011;46848;51.980;5.918;2023-04-15T10:53:50;3.67;;;2.35;;
43519;SDS011;46848;51.980;5.918;2023-04-15T10:56:19;2.88;;;1.98;;
43519;SDS011;46848;51.980;5.918;2023-04-15T10:58:45;6.45;;;2.30;;
43519;SDS011;46848;51.980;5.918;2023-04-15T11:01:12;3.45;;;2.22;;
43519;SDS011;46848;51.980;5.918;2023-04-15T11:03:39;6.03;;;2.85;;
43519;SDS011;46848;51.980;5.918;2023-04-15T11:06:07;4.78;;;2.55;;
43519;SDS011;46848;51.980;5.918;2023-04-15T11:11:20;3.08;;;2.00;;
43519;SDS011;46848;51.980;5.918;2023-04-15T11:13:49;2.25;;;1.52;;
43519;SDS011;46848;51.980;5.918;2023-04-15T11:16:16;3.40;;;1.85;;
43519;SDS011;46848;51.980;5.918;2023-04-15T11:18:55;2.47;;;1.63;;
43519;SDS011;46848;51.980;5.918;2023-04-15T11:21:23;3.70;;;2.13;;
43519;SDS011;46848;51.980;5.918;2023-04-15T11:23:50;4.47;;;2.15;;
43519;SDS011;46848;51.980;5.918;2023-04-15T11:26:17;3.10;;;2.00;;
43519;SDS011;46848;51.980;5.918;2023-04-15T11:28:43;2.88;;;1.70;;
43519;SDS011;46848;51.980;5.918;2023-04-15T11:31:11;3.03;;;1.38;;
43519;SDS011;46848;51.980;5.918;2023-04-15T11:34:19;2.42;;;1.60;;
43519;SDS011;46848;51.980;5.918;2023-04-15T11:36:33;2.08;;;1.23;;
43519;SDS011;46848;51.980;5.918;2023-04-15T11:38:59;4.20;;;1.92;;
43519;SDS011;46848;51.980;5.918;2023-04-15T11:41:24;3.10;;;1.52;;
43519;SDS011;46848;51.980;5.918;2023-04-15T11:43:51;4.07;;;1.38;;
43519;SDS011;46848;51.980;5.918;2023-04-15T11:46:29;2.20;;;1.20;;
43519;SDS011;46848;51.980;5.918;2023-04-15T11:48:55;2.42;;;1.10;;
43519;SDS011;46848;51.980;5.918;2023-04-15T11:51:21;2.88;;;0.88;;
43519;SDS011;46848;51.980;5.918;2023-04-15T11:53:48;2.47;;;1.13;;
43519;SDS011;46848;51.980;5.918;2023-04-15T11:56:21;4.47;;;1.38;;
43519;SDS011;46848;51.980;5.918;2023-04-15T11:58:52;1.65;;;0.88;;
43519;SDS011;46848;51.980;5.918;2023-04-15T12:01:21;2.78;;;0.80;;
43519;SDS011;46848;51.980;5.918;2023-04-15T12:04:10;3.28;;;1.17;;
43519;SDS011;46848;51.980;5.918;2023-04-15T12:06:47;2.88;;;1.00;;
43519;SDS011;46848;51.980;5.918;2023-04-15T12:09:13;3.58;;;1.20;;
43519;SDS011;46848;51.980;5.918;2023-04-15T12:11:49;2.50;;;1.00;;
43519;SDS011;46848;51.980;5.918;2023-04-15T12:14:31;4.18;;;1.40;;
43519;SDS011;46848;51.980;5.918;2023-04-15T12:16:58;3.03;;;1.02;;
43519;SDS011;46848;51.980;5.918;2023-04-15T12:19:36;2.78;;;0.90;;
43519;SDS011;46848;51.980;5.918;2023-04-15T12:22:10;2.95;;;1.10;;
43519;SDS011;46848;51.980;5.918;2023-04-15T12:24:38;2.95;;;1.10;;
43519;SDS011;46848;51.980;5.918;2023-04-15T12:27:05;2.28;;;0.90;;
43519;SDS011;46848;51.980;5.918;2023-04-15T12:29:32;1.83;;;0.73;;
43519;SDS011;46848;51.980;5.918;2023-04-15T12:32:11;2.05;;;1.00;;
43519;SDS011;46848;51.980;5.918;2023-04-15T12:34:38;3.35;;;0.80;;
43519;SDS011;46848;51.980;5.918;2023-04-15T12:37:06;2.65;;;0.93;;
43519;SDS011;46848;51.980;5.918;2023-04-15T12:39:37;2.53;;;1.23;;
43519;SDS011;46848;51.980;5.918;2023-04-15T12:42:04;3.17;;;1.03;;
43519;SDS011;46848;51.980;5.918;2023-04-15T12:44:34;3.22;;;1.23;;
43519;SDS011;46848;51.980;5.918;2023-04-15T12:47:00;2.67;;;1.00;;
43519;SDS011;46848;51.980;5.918;2023-04-15T12:49:26;2.13;;;0.77;;
43519;SDS011;46848;51.980;5.918;2023-04-15T12:51:53;2.40;;;0.90;;
43519;SDS011;46848;51.980;5.918;2023-04-15T12:54:21;2.95;;;0.93;;
43519;SDS011;46848;51.980;5.918;2023-04-15T12:56:47;3.30;;;0.90;;
43519;SDS011;46848;51.980;5.918;2023-04-15T12:59:14;3.05;;;0.90;;
43519;SDS011;46848;51.980;5.918;2023-04-15T13:01:42;4.00;;;1.00;;
43519;SDS011;46848;51.980;5.918;2023-04-15T13:04:08;2.00;;;0.80;;
43519;SDS011;46848;51.980;5.918;2023-04-15T13:06:34;1.35;;;0.80;;
43519;SDS011;46848;51.980;5.918;2023-04-15T13:09:01;2.30;;;1.00;;
43519;SDS011;46848;51.980;5.918;2023-04-15T13:11:28;4.07;;;1.23;;
43519;SDS011;46848;51.980;5.918;2023-04-15T13:13:59;2.88;;;0.80;;
43519;SDS011;46848;51.980;5.918;2023-04-15T13:16:25;3.72;;;1.17;;
43519;SDS011;46848;51.980;5.918;2023-04-15T13:18:51;3.17;;;0.90;;
43519;SDS011;46848;51.980;5.918;2023-04-15T13:21:18;2.33;;;0.70;;
43519;SDS011;46848;51.980;5.918;2023-04-15T13:23:44;2.55;;;1.00;;
43519;SDS011;46848;51.980;5.918;2023-04-15T13:26:09;1.88;;;0.82;;
43519;SDS011;46848;51.980;5.918;2023-04-15T13:28:35;1.85;;;0.80;;
43519;SDS011;46848;51.980;5.918;2023-04-15T13:31:01;2.42;;;0.73;;
43519;SDS011;46848;51.980;5.918;2023-04-15T13:33:27;3.95;;;0.50;;
43519;SDS011;46848;51.980;5.918;2023-04-15T13:35:52;3.65;;;0.90;;
43519;SDS011;46848;51.980;5.918;2023-04-15T13:38:19;1.35;;;0.50;;
43519;SDS011;46848;51.980;5.918;2023-04-15T13:40:45;2.63;;;0.75;;
43519;SDS011;46848;51.980;5.918;2023-04-15T13:43:10;1.52;;;0.63;;
43519;SDS011;46848;51.980;5.918;2023-04-15T13:45:37;2.60;;;0.80;;
43519;SDS011;46848;51.980;5.918;2023-04-15T13:48:03;0.85;;;0.47;;
43519;SDS011;46848;51.980;5.918;2023-04-15T13:50:28;2.35;;;0.85;;
43519;SDS011;46848;51.980;5.918;2023-04-15T13:52:54;2.00;;;0.60;;
43519;SDS011;46848;51.980;5.918;2023-04-15T13:55:19;3.40;;;0.70;;
43519;SDS011;46848;51.980;5.918;2023-04-15T13:57:45;2.15;;;0.63;;
43519;SDS011;46848;51.980;5.918;2023-04-15T14:00:12;1.70;;;0.50;;
43519;SDS011;46848;51.980;5.918;2023-04-15T14:02:39;1.55;;;0.60;;
43519;SDS011;46848;51.980;5.918;2023-04-15T14:05:05;1.88;;;0.80;;
43519;SDS011;46848;51.980;5.918;2023-04-15T14:07:31;2.80;;;0.60;;
43519;SDS011;46848;51.980;5.918;2023-04-15T14:09:57;1.85;;;0.65;;
43519;SDS011;46848;51.980;5.918;2023-04-15T14:12:23;1.27;;;0.57;;
43519;SDS011;46848;51.980;5.918;2023-04-15T14:14:49;1.27;;;0.40;;
43519;SDS011;46848;51.980;5.918;2023-04-15T14:17:15;1.35;;;0.60;;
43519;SDS011;46848;51.980;5.918;2023-04-15T14:19:42;1.13;;;0.40;;
43519;SDS011;46848;51.980;5.918;2023-04-15T14:22:08;1.60;;;0.60;;
43519;SDS011;46848;51.980;5.918;2023-04-15T14:24:33;1.10;;;0.60;;
43519;SDS011;46848;51.980;5.918;2023-04-15T14:26:59;1.42;;;0.80;;
43519;SDS011;46848;51.980;5.918;2023-04-15T14:29:26;1.42;;;0.50;;
43519;SDS011;46848;51.980;5.918;2023-04-15T14:31:51;1.33;;;0.60;;
43519;SDS011;46848;51.980;5.918;2023-04-15T14:34:17;1.60;;;0.60;;
43519;SDS011;46848;51.980;5.918;2023-04-15T14:36:43;0.63;;;0.40;;
43519;SDS011;46848;51.980;5.918;2023-04-15T14:39:08;2.67;;;0.70;;
43519;SDS011;46848;51.980;5.918;2023-04-15T14:41:34;1.00;;;0.60;;
43519;SDS011;46848;51.980;5.918;2023-04-15T14:44:01;2.33;;;0.88;;
43519;SDS011;46848;51.980;5.918;2023-04-15T14:46:27;2.60;;;0.85;;
43519;SDS011;46848;51.980;5.918;2023-04-15T14:48:53;4.05;;;1.00;;
43519;SDS011;46848;51.980;5.918;2023-04-15T14:51:18;4.72;;;1.00;;